createdAt,value
2022-08-04T00:02:15.766Z,10.10
2022-08-04T00:05:00.350Z,8.73
2022-08-04T00:07:52.808Z,10.25
2022-08-04T00:10:28.222Z,11.35
2022-08-04T00:13:00.389Z,11.82
2022-08-04T00:15:33.792Z,12.65
2022-08-04T00:18:08.634Z,12.60
2022-08-04T00:20:42.413Z,11.40
2022-08-04T00:23:14.866Z,11.00
2022-08-04T00:25:46.293Z,10.43
2022-08-04T00:28:17.823Z,9.88
2022-08-04T00:30:49.550Z,8.82
2022-08-04T00:33:21.125Z,9.60
2022-08-04T00:35:52.730Z,10.80
2022-08-04T00:38:25.188Z,9.05
2022-08-04T00:41:38.445Z,10.43
2022-08-04T00:44:55.487Z,11.52
2022-08-04T00:48:27.224Z,10.55
2022-08-04T00:51:15.095Z,9.93
2022-08-04T00:54:28.478Z,10.30
2022-08-04T00:57:34.115Z,11.20
2022-08-04T01:00:10.310Z,9.67
2022-08-04T01:03:12.008Z,10.52
2022-08-04T01:06:09.358Z,9.90
2022-08-04T01:09:03.542Z,9.55
2022-08-04T01:11:56.189Z,9.68
2022-08-04T01:14:51.589Z,7.55
2022-08-04T01:17:23.184Z,9.52
2022-08-04T01:20:06.926Z,9.30
2022-08-04T01:23:16.605Z,9.57
2022-08-04T01:26:02.713Z,7.75
2022-08-04T01:29:04.300Z,5.13
2022-08-04T01:31:50.443Z,6.15
2022-08-04T01:34:22.900Z,5.65
2022-08-04T01:37:19.091Z,4.50
2022-08-04T01:39:59.959Z,5.15
2022-08-04T01:42:35.778Z,4.47
2022-08-04T01:47:50.354Z,4.28
2022-08-04T01:50:23.033Z,4.20
2022-08-04T01:52:55.094Z,4.43
2022-08-04T01:55:55.301Z,3.75
2022-08-04T01:58:21.686Z,3.85
2022-08-04T02:01:09.308Z,3.92
2022-08-04T02:04:20.113Z,4.05
2022-08-04T02:06:48.466Z,3.60
2022-08-04T02:09:26.589Z,3.83
2022-08-04T02:12:05.395Z,3.95
2022-08-04T02:14:57.110Z,3.17
2022-08-04T02:17:42.806Z,3.97
2022-08-04T02:20:43.994Z,3.53
2022-08-04T02:23:26.015Z,4.07
2022-08-04T02:26:01.925Z,3.83
2022-08-04T02:31:22.571Z,3.65
2022-08-04T02:34:09.236Z,3.70
2022-08-04T02:36:42.373Z,3.40
2022-08-04T02:39:19.835Z,3.58
2022-08-04T02:41:52.923Z,3.97
2022-08-04T02:44:28.125Z,3.85
2022-08-04T02:47:00.764Z,4.32
2022-08-04T02:49:36.695Z,3.50
2022-08-04T02:52:14.622Z,4.50
2022-08-04T02:54:51.039Z,4.60
2022-08-04T02:57:26.844Z,4.40
2022-08-04T03:02:58.390Z,4.35
2022-08-04T03:06:00.525Z,4.30
2022-08-04T03:08:39.074Z,4.22
2022-08-04T03:11:28.683Z,3.47
2022-08-04T03:14:16.009Z,3.65
2022-08-04T03:17:29.295Z,3.38
2022-08-04T03:20:38.393Z,3.85
2022-08-04T03:23:34.952Z,3.20
2022-08-04T03:26:40.408Z,4.13
2022-08-04T03:29:57.532Z,3.72
2022-08-04T03:32:49.602Z,3.25
2022-08-04T03:35:51.329Z,3.25
2022-08-04T03:38:42.366Z,3.47
2022-08-04T03:42:03.909Z,3.08
2022-08-04T03:45:23.503Z,2.38
2022-08-04T03:48:30.470Z,2.67
2022-08-04T03:51:47.821Z,2.58
2022-08-04T03:54:37.884Z,2.58
2022-08-04T03:57:30.808Z,2.97
2022-08-04T04:00:08.593Z,2.78
2022-08-04T04:03:26.790Z,2.83
2022-08-04T04:06:06.707Z,2.67
2022-08-04T04:09:28.709Z,3.45
2022-08-04T04:12:46.671Z,2.80
2022-08-04T04:15:49.788Z,3.90
2022-08-04T04:18:39.261Z,2.67
2022-08-04T04:21:27.250Z,3.00
2022-08-04T04:24:33.867Z,2.55
2022-08-04T04:27:28.291Z,3.10
2022-08-04T04:30:37.264Z,2.63
2022-08-04T04:33:20.761Z,2.75
2022-08-04T04:36:19.317Z,3.33
2022-08-04T04:39:11.779Z,2.10
2022-08-04T04:42:01.763Z,3.22
2022-08-04T04:44:39.206Z,2.33
2022-08-04T04:47:43.016Z,3.00
2022-08-04T04:50:45.094Z,2.28
2022-08-04T04:53:45.041Z,2.83
2022-08-04T04:56:31.360Z,3.00
2022-08-04T05:02:12.590Z,3.47
2022-08-04T05:05:22.233Z,2.53
2022-08-04T05:08:44.231Z,2.65
2022-08-04T05:11:29.505Z,2.70
2022-08-04T05:14:35.208Z,2.50
2022-08-04T05:17:04.622Z,2.65
2022-08-04T05:20:01.036Z,2.25
2022-08-04T05:22:55.016Z,2.30
2022-08-04T05:25:32.340Z,2.47
2022-08-04T05:28:09.955Z,3.20
2022-08-04T05:30:49.508Z,3.33
2022-08-04T05:33:32.441Z,2.90
2022-08-04T05:36:23.495Z,2.75
2022-08-04T05:39:00.684Z,2.50
2022-08-04T05:41:45.355Z,2.45
2022-08-04T05:44:21.352Z,2.42
2022-08-04T05:46:56.116Z,2.50
2022-08-04T05:49:29.186Z,2.78
2022-08-04T05:52:02.752Z,3.08
2022-08-04T05:54:35.790Z,2.40
2022-08-04T05:57:08.509Z,2.10
2022-08-04T05:59:42.693Z,2.63
2022-08-04T06:02:17.733Z,2.97
2022-08-04T06:04:51.052Z,2.20
2022-08-04T06:07:22.788Z,2.25
2022-08-04T06:09:55.175Z,2.70
2022-08-04T06:12:49.508Z,2.50
2022-08-04T06:15:25.365Z,2.53
2022-08-04T06:18:33.624Z,2.65
2022-08-04T06:20:55.918Z,2.08
2022-08-04T06:23:31.389Z,2.35
2022-08-04T06:26:03.959Z,2.38
2022-08-04T06:28:36.411Z,2.20
2022-08-04T06:32:31.126Z,2.08
2022-08-04T06:34:05.091Z,2.92
2022-08-04T06:36:38.034Z,2.10
2022-08-04T06:39:11.349Z,2.33
2022-08-04T06:42:17.047Z,2.30
2022-08-04T06:44:36.377Z,2.58
2022-08-04T06:47:10.130Z,2.55
2022-08-04T06:51:25.390Z,2.10
2022-08-04T06:52:44.782Z,2.95
2022-08-04T06:55:16.228Z,3.00
2022-08-04T06:57:48.190Z,2.10
2022-08-04T07:00:19.516Z,2.20
2022-08-04T07:02:53.418Z,2.50
2022-08-04T07:05:25.266Z,2.20
2022-08-04T07:07:58.731Z,2.50
2022-08-04T07:10:30.838Z,3.10
2022-08-04T07:13:03.014Z,1.98
2022-08-04T07:15:36.535Z,2.38
2022-08-04T07:18:07.935Z,2.10
2022-08-04T07:20:43.670Z,2.65
2022-08-04T07:23:21.284Z,1.48
2022-08-04T07:26:12.428Z,2.35
2022-08-04T07:28:44.980Z,1.50
2022-08-04T07:31:34.612Z,1.65
2022-08-04T07:34:20.669Z,2.20
2022-08-04T07:36:55.182Z,2.28
2022-08-04T07:39:31.317Z,2.20
2022-08-04T07:42:04.149Z,1.70
2022-08-04T07:44:36.043Z,2.20
2022-08-04T07:47:08.472Z,1.85
2022-08-04T07:49:56.709Z,1.88
2022-08-04T07:52:29.551Z,1.90
2022-08-04T07:55:01.241Z,1.92
2022-08-04T07:57:40.194Z,1.70
2022-08-04T08:00:16.688Z,1.88
2022-08-04T08:02:54.672Z,1.88
2022-08-04T08:05:26.373Z,2.00
2022-08-04T08:07:58.278Z,1.90
2022-08-04T08:10:29.717Z,1.70
2022-08-04T08:13:01.820Z,1.80
2022-08-04T08:15:33.750Z,1.80
2022-08-04T08:18:05.160Z,1.92
2022-08-04T08:20:36.562Z,1.52
2022-08-04T08:23:08.227Z,1.73
2022-08-04T08:25:39.700Z,1.40
2022-08-04T08:28:11.315Z,1.60
2022-08-04T08:30:42.827Z,1.95
2022-08-04T08:33:16.554Z,1.77
2022-08-04T08:36:29.047Z,1.70
2022-08-04T08:39:11.999Z,1.85
2022-08-04T08:41:55.352Z,2.10
2022-08-04T08:44:57.668Z,1.92
2022-08-04T08:48:06.217Z,1.92
2022-08-04T08:51:11.778Z,1.70
2022-08-04T08:54:04.401Z,2.80
2022-08-04T08:57:14.985Z,1.60
2022-08-04T08:59:55.634Z,1.45
2022-08-04T09:03:05.362Z,1.50
2022-08-04T09:05:50.293Z,1.65
2022-08-04T09:08:58.722Z,1.80
2022-08-04T09:11:43.904Z,1.50
2022-08-04T09:17:02.737Z,1.90
2022-08-04T09:19:39.797Z,1.50
2022-08-04T09:23:04.167Z,1.80
2022-08-04T09:25:42.582Z,2.00
2022-08-04T09:28:43.701Z,1.80
2022-08-04T09:31:19.616Z,1.73
2022-08-04T09:34:03.845Z,1.95
2022-08-04T09:36:51.300Z,1.63
2022-08-04T09:39:37.049Z,1.70
2022-08-04T09:42:45.476Z,1.70
2022-08-04T09:45:42.661Z,1.50
2022-08-04T09:48:43.978Z,1.50
2022-08-04T09:51:59.068Z,1.60
2022-08-04T09:54:40.097Z,1.75
2022-08-04T09:57:51.605Z,1.45
2022-08-04T10:00:41.131Z,1.65
2022-08-04T10:03:19.969Z,1.60
2022-08-04T10:06:19.361Z,1.60
2022-08-04T10:09:12.717Z,2.17
2022-08-04T10:11:56.549Z,1.70
2022-08-04T10:14:47.116Z,2.03
2022-08-04T10:17:52.976Z,1.98
2022-08-04T10:20:46.650Z,1.77
2022-08-04T10:23:19.000Z,1.45
2022-08-04T10:26:22.184Z,2.10
2022-08-04T10:29:03.439Z,1.90
2022-08-04T10:31:40.230Z,1.65
2022-08-04T10:34:21.915Z,1.80
2022-08-04T10:37:23.538Z,2.40
2022-08-04T10:40:37.138Z,1.77
2022-08-04T10:43:22.320Z,1.80
2022-08-04T10:46:01.743Z,1.92
2022-08-04T10:48:55.964Z,1.80
2022-08-04T10:51:57.942Z,1.73
2022-08-04T10:54:55.275Z,1.90
2022-08-04T10:57:36.050Z,1.70
2022-08-04T11:00:19.851Z,1.92
2022-08-04T11:02:59.433Z,1.90
2022-08-04T11:05:44.030Z,1.80
2022-08-04T11:08:27.005Z,1.63
2022-08-04T11:11:09.268Z,1.50
2022-08-04T11:14:03.296Z,1.65
2022-08-04T11:16:39.014Z,1.55
2022-08-04T11:19:44.797Z,1.70
2022-08-04T11:22:23.198Z,1.67
2022-08-04T11:25:26.340Z,1.80
2022-08-04T11:28:26.558Z,1.70
2022-08-04T11:31:04.543Z,1.58
2022-08-04T11:33:47.090Z,1.60
2022-08-04T11:36:34.451Z,1.70
2022-08-04T11:39:12.679Z,1.52
2022-08-04T11:42:14.797Z,2.33
2022-08-04T11:44:49.285Z,1.70
2022-08-04T11:47:39.673Z,1.70
2022-08-04T11:50:35.216Z,1.80
2022-08-04T11:53:07.592Z,1.85
2022-08-04T11:56:06.931Z,1.95
2022-08-04T11:58:32.337Z,2.47
2022-08-04T12:01:21.813Z,2.10
2022-08-04T12:04:20.133Z,1.90
2022-08-04T12:07:29.567Z,1.80
2022-08-04T12:10:38.020Z,2.00
2022-08-04T12:13:45.974Z,1.70
2022-08-04T12:16:40.565Z,1.95
2022-08-04T12:19:34.955Z,2.10
2022-08-04T12:22:31.480Z,1.83
2022-08-04T12:25:13.666Z,1.75
2022-08-04T12:27:50.344Z,1.85
2022-08-04T12:30:58.445Z,2.15
2022-08-04T12:34:03.083Z,2.00
2022-08-04T12:36:39.082Z,1.60
2022-08-04T12:39:15.667Z,1.83
2022-08-04T12:42:01.587Z,1.70
2022-08-04T12:44:38.976Z,1.60
2022-08-04T12:47:27.513Z,1.50
2022-08-04T12:50:03.375Z,1.63
2022-08-04T12:53:06.915Z,1.63
2022-08-04T12:55:44.190Z,1.80
2022-08-04T12:58:47.593Z,1.77
2022-08-04T13:02:09.029Z,1.70
2022-08-04T13:04:16.641Z,1.60
2022-08-04T13:07:02.308Z,1.60
2022-08-04T13:09:34.410Z,1.30
2022-08-04T13:12:16.187Z,1.77
2022-08-04T13:14:52.716Z,1.38
2022-08-04T13:17:28.082Z,1.48
2022-08-04T13:20:01.690Z,1.63
2022-08-04T13:22:35.095Z,1.45
2022-08-04T13:26:41.785Z,1.45
2022-08-04T13:28:00.098Z,1.30
2022-08-04T13:30:33.171Z,1.38
2022-08-04T13:33:05.619Z,1.48
2022-08-04T13:35:55.676Z,1.63
2022-08-04T13:38:29.566Z,1.10
2022-08-04T13:41:05.356Z,1.60
2022-08-04T13:43:51.595Z,1.42
2022-08-04T13:47:04.826Z,1.30
2022-08-04T13:49:42.942Z,1.38
2022-08-04T13:52:26.561Z,1.23
2022-08-04T13:54:57.924Z,1.45
2022-08-04T13:57:43.021Z,1.60
2022-08-04T14:00:16.874Z,1.52
2022-08-04T14:03:19.031Z,1.38
2022-08-04T14:06:09.385Z,1.30
2022-08-04T14:12:10.800Z,1.52
2022-08-04T14:14:21.517Z,1.40
2022-08-04T14:17:06.134Z,1.35
2022-08-04T14:19:46.291Z,1.48
2022-08-04T14:22:31.005Z,1.38
2022-08-04T14:25:16.194Z,1.25
2022-08-04T14:27:56.197Z,1.10
2022-08-04T14:30:37.024Z,1.38
2022-08-04T14:34:02.448Z,1.27
2022-08-04T14:36:04.604Z,1.88
2022-08-04T14:39:00.429Z,1.40
2022-08-04T14:41:45.370Z,1.50
2022-08-04T14:44:17.253Z,1.38
2022-08-04T14:46:54.786Z,1.58
2022-08-04T14:49:28.736Z,1.55
2022-08-04T14:52:02.811Z,1.60
2022-08-04T14:54:35.281Z,1.50
2022-08-04T14:57:08.020Z,1.70
2022-08-04T14:59:59.786Z,1.23
2022-08-04T15:02:35.883Z,1.80
2022-08-04T15:06:02.267Z,1.77
2022-08-04T15:07:59.761Z,2.88
2022-08-04T15:10:31.647Z,2.38
2022-08-04T15:13:03.352Z,2.92
2022-08-04T15:15:37.343Z,3.10
2022-08-04T15:18:13.066Z,2.88
2022-08-04T15:20:44.500Z,3.45
2022-08-04T15:23:16.778Z,2.80
2022-08-04T15:25:54.412Z,3.33
2022-08-04T15:28:29.291Z,4.68
2022-08-04T15:31:03.094Z,4.63
2022-08-04T15:33:39.359Z,5.57
2022-08-04T15:36:15.415Z,4.40
2022-08-04T15:39:15.448Z,2.80
2022-08-04T15:42:13.955Z,3.60
2022-08-04T15:45:14.718Z,2.40
2022-08-04T15:48:04.341Z,2.20
2022-08-04T15:50:56.062Z,2.38
2022-08-04T15:54:03.617Z,2.22
2022-08-04T15:56:44.093Z,2.92
2022-08-04T15:59:58.507Z,1.67
2022-08-04T16:02:40.892Z,2.70
2022-08-04T16:05:18.181Z,2.22
2022-08-04T16:08:09.773Z,2.38
2022-08-04T16:10:44.379Z,2.63
2022-08-04T16:13:19.706Z,2.95
2022-08-04T16:15:55.594Z,3.05
2022-08-04T16:18:29.673Z,2.40
2022-08-04T16:21:04.081Z,2.85
2022-08-04T16:24:00.702Z,3.08
2022-08-04T16:26:36.671Z,3.08
2022-08-04T16:29:39.960Z,2.92
2022-08-04T16:32:15.521Z,2.85
2022-08-04T16:34:56.959Z,2.90
2022-08-04T16:37:38.855Z,3.55
2022-08-04T16:40:38.808Z,2.72
2022-08-04T16:43:16.449Z,3.80
2022-08-04T16:46:01.504Z,3.85
2022-08-04T16:48:36.621Z,3.88
2022-08-04T16:51:09.778Z,3.22
2022-08-04T16:53:52.005Z,3.63
2022-08-04T16:56:34.708Z,3.50
2022-08-04T16:59:11.993Z,3.15
2022-08-04T17:01:51.551Z,3.50
2022-08-04T17:04:34.221Z,4.00
2022-08-04T17:07:06.329Z,3.35
2022-08-04T17:09:48.773Z,2.90
2022-08-04T17:12:20.289Z,3.20
2022-08-04T17:14:52.270Z,3.35
2022-08-04T17:17:25.740Z,3.20
2022-08-04T17:20:17.498Z,3.78
2022-08-04T17:22:49.097Z,4.10
2022-08-04T17:25:20.385Z,3.53
2022-08-04T17:28:26.155Z,3.25
2022-08-04T17:31:00.524Z,2.95
2022-08-04T17:33:54.273Z,3.80
2022-08-04T17:36:31.881Z,3.85
2022-08-04T17:39:16.964Z,3.38
2022-08-04T17:41:54.977Z,3.33
2022-08-04T17:44:37.323Z,3.28
2022-08-04T17:47:17.254Z,2.80
2022-08-04T17:49:54.642Z,3.22
2022-08-04T17:52:41.343Z,2.67
2022-08-04T17:55:20.700Z,3.47
2022-08-04T17:58:20.966Z,3.33
2022-08-04T18:01:23.770Z,2.47
2022-08-04T18:03:58.009Z,2.92
2022-08-04T18:06:29.647Z,3.03
2022-08-04T18:09:57.404Z,3.47
2022-08-04T18:12:03.281Z,3.38
2022-08-04T18:14:50.034Z,3.72
2022-08-04T18:18:20.853Z,3.30
2022-08-04T18:20:31.087Z,3.00
2022-08-04T18:23:03.201Z,3.15
2022-08-04T18:25:51.316Z,3.85
2022-08-04T18:28:26.995Z,3.35
2022-08-04T18:31:00.032Z,3.20
2022-08-04T18:33:40.895Z,3.55
2022-08-04T18:36:33.378Z,3.00
2022-08-04T18:39:12.006Z,5.72
2022-08-04T18:42:02.057Z,18.55
2022-08-04T18:44:52.509Z,5.63
2022-08-04T18:47:29.881Z,12.68
2022-08-04T18:50:40.009Z,4.47
2022-08-04T18:52:54.462Z,3.10
2022-08-04T18:55:56.226Z,4.10
2022-08-04T18:58:26.913Z,2.40
2022-08-04T19:01:00.713Z,3.80
2022-08-04T19:03:33.434Z,2.55
2022-08-04T19:06:07.446Z,2.80
2022-08-04T19:08:42.208Z,3.30
2022-08-04T19:11:37.684Z,2.95
2022-08-04T19:14:07.423Z,3.17
2022-08-04T19:16:45.954Z,2.70
2022-08-04T19:19:19.970Z,2.47
2022-08-04T19:22:00.393Z,2.60
2022-08-04T19:24:34.685Z,2.63
2022-08-04T19:27:08.436Z,3.00
2022-08-04T19:29:41.016Z,2.40
2022-08-04T19:32:16.343Z,2.75
2022-08-04T19:34:48.336Z,2.20
2022-08-04T19:38:01.010Z,3.30
2022-08-04T19:40:12.972Z,6.72
2022-08-04T19:42:45.194Z,2.70
2022-08-04T19:45:40.218Z,2.75
2022-08-04T19:48:18.874Z,2.25
2022-08-04T19:50:51.169Z,2.22
2022-08-04T19:53:37.107Z,2.33
2022-08-04T19:56:09.129Z,2.40
2022-08-04T19:58:41.911Z,2.10
2022-08-04T20:01:31.563Z,2.40
2022-08-04T20:04:11.225Z,2.22
2022-08-04T20:06:43.118Z,2.83
2022-08-04T20:09:25.023Z,2.38
2022-08-04T20:11:58.110Z,2.63
2022-08-04T20:14:32.466Z,3.15
2022-08-04T20:17:10.291Z,2.67
2022-08-04T20:19:42.214Z,3.00
2022-08-04T20:22:52.148Z,5.30
2022-08-04T20:25:27.145Z,3.45
2022-08-04T20:28:06.347Z,3.72
2022-08-04T20:30:37.841Z,3.63
2022-08-04T20:33:09.974Z,2.78
2022-08-04T20:35:45.883Z,3.08
2022-08-04T20:38:34.699Z,3.10
2022-08-04T20:41:06.129Z,2.70
2022-08-04T20:43:37.664Z,2.85
2022-08-04T20:46:18.698Z,2.78
2022-08-04T20:49:00.179Z,2.53
2022-08-04T20:51:33.752Z,3.30
2022-08-04T20:54:16.936Z,2.50
2022-08-04T20:56:55.336Z,2.40
2022-08-04T20:59:28.006Z,2.40
2022-08-04T21:01:59.458Z,2.50
2022-08-04T21:04:31.272Z,3.28
2022-08-04T21:07:10.629Z,5.55
2022-08-04T21:12:36.338Z,3.50
2022-08-04T21:15:14.510Z,3.65
2022-08-04T21:17:58.990Z,4.45
2022-08-04T21:20:42.362Z,3.80
2022-08-04T21:23:14.725Z,4.18
2022-08-04T21:25:50.641Z,4.55
2022-08-04T21:28:21.973Z,7.55
2022-08-04T21:30:59.392Z,5.55
2022-08-04T21:39:16.560Z,7.18
2022-08-04T21:42:20.059Z,6.55
2022-08-04T21:44:39.197Z,7.05
2022-08-04T21:47:32.907Z,7.63
2022-08-04T21:50:04.022Z,7.68
2022-08-04T21:52:35.327Z,7.93
2022-08-04T21:55:07.020Z,7.85
2022-08-04T21:57:38.818Z,7.40
2022-08-04T22:00:18.343Z,7.25
2022-08-04T22:02:53.192Z,7.18
2022-08-04T22:05:25.161Z,6.78
2022-08-04T22:07:56.466Z,7.55
2022-08-04T22:10:33.016Z,7.73
2022-08-04T22:13:06.861Z,7.50
2022-08-04T22:16:03.662Z,6.53
2022-08-04T22:18:30.176Z,7.93
2022-08-04T22:21:01.504Z,8.30
2022-08-04T22:23:41.839Z,8.57
2022-08-04T22:26:26.488Z,9.55
2022-08-04T22:28:58.533Z,8.02
2022-08-04T22:31:56.369Z,8.57
2022-08-04T22:34:22.154Z,8.45
2022-08-04T22:36:55.318Z,8.27
2022-08-04T22:39:27.703Z,8.73
2022-08-04T22:42:03.858Z,8.55
2022-08-04T22:44:37.970Z,8.30
2022-08-04T22:47:20.163Z,8.35
2022-08-04T22:50:13.501Z,8.47
2022-08-04T22:52:55.628Z,9.00
2022-08-04T22:55:27.748Z,9.27
2022-08-04T22:58:19.030Z,9.60
2022-08-04T23:00:53.041Z,9.25
2022-08-04T23:03:36.854Z,8.65
2022-08-04T23:06:11.560Z,9.27
2022-08-04T23:08:46.464Z,9.55
2022-08-04T23:11:19.875Z,8.73
2022-08-04T23:13:51.161Z,9.65
2022-08-04T23:16:24.554Z,11.23
2022-08-04T23:18:56.082Z,9.70
2022-08-04T23:21:27.577Z,9.50
2022-08-04T23:24:12.084Z,8.82
2022-08-04T23:26:46.874Z,9.15
2022-08-04T23:29:18.950Z,8.77
2022-08-04T23:31:59.040Z,9.68
2022-08-04T23:34:31.653Z,10.40
2022-08-04T23:37:02.999Z,10.43
2022-08-04T23:40:03.799Z,9.57
2022-08-04T23:42:25.945Z,10.05
2022-08-04T23:44:57.552Z,9.55
2022-08-04T23:48:15.962Z,10.02
2022-08-04T23:50:20.194Z,9.35
2022-08-04T23:52:52.845Z,8.27
2022-08-04T23:55:24.604Z,9.00
2022-08-04T23:58:18.611Z,9.15
